Time;durP1;ratioP1;P1;durP2;ratioP2;P2;SDS_P1;SDS_P2;PMS_P1;PMS_P2;Temp;Humidity;BMP_temperature;BMP_pressure;BME280_temperature;BME280_humidity;BME280_pressure;Samples;Min_cycle;Max_cycle;Signal;HPM_P1;HPM_P2
2023/11/01 00:01:40;;;;;;;5.45;1.40;;;;;;;10.75;100.00;100306.66;5094405;28;20217;-75
2023/11/01 00:04:07;;;;;;;5.65;1.40;;;;;;;10.75;100.00;100304.91;5090961;28;20429;-75
2023/11/01 00:06:32;;;;;;;2.83;1.50;;;;;;;10.76;100.00;100296.13;5088699;28;20112;-75
2023/11/01 00:08:58;;;;;;;4.32;1.80;;;;;;;10.78;100.00;100297.81;5068575;28;20044;-75
2023/11/01 00:11:23;;;;;;;5.70;2.00;;;;;;;10.75;100.00;100283.09;5091368;28;20295;-75
2023/11/01 00:13:48;;;;;;;5.03;1.63;;;;;;;10.77;100.00;100291.75;5088076;28;20215;-75
2023/11/01 00:16:14;;;;;;;4.93;2.03;;;;;;;10.78;100.00;100282.09;5091160;28;20043;-75
2023/11/01 00:18:39;;;;;;;4.95;2.08;;;;;;;10.77;100.00;100278.66;5089120;28;20231;-75
2023/11/01 00:21:05;;;;;;;4.93;2.22;;;;;;;10.79;100.00;100282.03;5090200;28;20039;-75
2023/11/01 00:23:30;;;;;;;7.68;3.35;;;;;;;10.77;100.00;100265.56;5095000;28;20036;-75
2023/11/01 00:25:56;;;;;;;11.73;4.35;;;;;;;10.75;100.00;100272.63;5088192;28;20055;-75
2023/11/01 00:28:21;;;;;;;12.23;3.70;;;;;;;10.75;100.00;100270.88;5093688;28;20051;-75
2023/11/01 00:30:47;;;;;;;6.53;3.65;;;;;;;10.78;100.00;100275.09;5093540;28;20063;-75
2023/11/01 00:33:13;;;;;;;13.00;5.20;;;;;;;10.75;100.00;100268.25;5090949;28;20385;-75
2023/11/01 00:35:38;;;;;;;7.75;4.18;;;;;;;10.78;100.00;100277.72;5090705;28;20062;-75
2023/11/01 00:38:06;;;;;;;12.75;5.38;;;;;;;10.79;100.00;100268.94;5093033;28;20335;-75
2023/11/01 00:40:31;;;;;;;10.93;5.20;;;;;;;10.79;100.00;100273.31;5099072;28;20354;-75
2023/11/01 00:42:57;;;;;;;10.73;4.80;;;;;;;10.77;100.00;100268.19;5094487;28;20035;-75
2023/11/01 00:45:22;;;;;;;11.05;5.30;;;;;;;10.76;100.00;100269.09;5100370;28;20047;-75
2023/11/01 00:47:47;;;;;;;13.65;6.35;;;;;;;10.76;100.00;100276.94;5088173;28;20069;-75
2023/11/01 00:50:13;;;;;;;9.00;5.45;;;;;;;10.77;100.00;100268.19;5081413;28;20031;-75
2023/11/01 00:52:38;;;;;;;11.52;5.00;;;;;;;10.76;100.00;100264.69;5086417;28;20037;-75
2023/11/01 00:55:04;;;;;;;14.32;5.60;;;;;;;10.75;100.00;100264.75;5092509;28;20036;-75
2023/11/01 00:57:32;;;;;;;10.23;4.63;;;;;;;10.75;100.00;100260.38;5088520;28;20350;-75
2023/11/01 00:59:58;;;;;;;9.10;5.28;;;;;;;10.75;100.00;100257.78;5098941;28;20265;-75
2023/11/01 01:02:23;;;;;;;7.93;4.47;;;;;;;10.76;100.00;100262.06;5082846;28;20036;-75
2023/11/01 01:04:48;;;;;;;8.93;4.93;;;;;;;10.75;100.00;100255.16;5082147;28;20051;-75
2023/11/01 01:07:14;;;;;;;10.52;5.20;;;;;;;10.76;100.00;100264.69;5092282;28;20349;-75
2023/11/01 01:09:39;;;;;;;5.75;4.45;;;;;;;10.78;100.00;100256.75;5085681;28;20027;-75
2023/11/01 01:12:05;;;;;;;20.52;7.18;;;;;;;10.77;100.00;100247.22;5094041;28;20103;-75
2023/11/01 01:14:30;;;;;;;9.30;5.22;;;;;;;10.79;100.00;100241.88;5078870;28;20036;-75
2023/11/01 01:16:56;;;;;;;16.17;6.45;;;;;;;10.80;100.00;100243.59;5096190;28;20263;-75
2023/11/01 01:19:22;;;;;;;9.65;5.70;;;;;;;10.80;100.00;100233.09;5102733;28;20035;-75
2023/11/01 01:21:48;;;;;;;14.27;5.85;;;;;;;10.79;100.00;100231.41;5098292;28;20040;-75
2023/11/01 01:24:13;;;;;;;16.38;6.03;;;;;;;10.78;100.00;100227.94;5080638;28;20644;-75
2023/11/01 01:26:38;;;;;;;21.83;7.78;;;;;;;10.77;100.00;100221.03;5085927;28;20323;-75
2023/11/01 01:29:04;;;;;;;15.18;5.82;;;;;;;10.78;100.00;100216.63;5084603;28;20216;-75
2023/11/01 01:31:29;;;;;;;13.10;5.78;;;;;;;10.76;100.00;100222.78;5097572;28;20111;-75
2023/11/01 01:33:55;;;;;;;12.02;5.97;;;;;;;10.77;100.00;100213.16;5084785;28;20037;-75
2023/11/01 01:36:20;;;;;;;7.47;4.97;;;;;;;10.77;100.00;100197.47;5085920;28;20059;-75
2023/11/01 01:38:45;;;;;;;8.07;4.93;;;;;;;10.81;100.00;100198.16;5089622;28;20040;-75
2023/11/01 01:41:11;;;;;;;5.90;4.63;;;;;;;10.82;100.00;100202.44;5086242;28;20055;-75
2023/11/01 01:43:36;;;;;;;5.32;4.40;;;;;;;10.81;100.00;100195.53;5083095;28;20565;-75
2023/11/01 01:46:07;;;;;;;6.28;4.22;;;;;;;10.81;100.00;100193.75;5080741;28;20279;-75
2023/11/01 01:48:35;;;;;;;6.28;4.18;;;;;;;10.80;100.00;100194.66;5097438;28;20051;-75
2023/11/01 01:51:00;;;;;;;4.43;3.72;;;;;;;10.83;100.00;100193.66;5093088;28;20039;-76
2023/11/01 01:53:26;;;;;;;8.40;4.28;;;;;;;10.83;100.00;100189.28;5078086;28;20216;-76
2023/11/01 01:55:54;;;;;;;6.50;3.90;;;;;;;10.80;100.00;100176.31;5092887;28;20331;-75
2023/11/01 01:58:20;;;;;;;7.05;4.05;;;;;;;10.79;100.00;100181.63;5083334;28;20333;-75
2023/11/01 02:00:47;;;;;;;5.78;3.97;;;;;;;10.78;100.00;100165.09;5079483;28;20247;-75
2023/11/01 02:03:12;;;;;;;7.53;3.95;;;;;;;10.75;100.00;100160.88;5084208;28;20047;-75
2023/11/01 02:05:38;;;;;;;4.53;3.72;;;;;;;10.77;100.00;100155.56;5077530;28;20041;-75
2023/11/01 02:08:04;;;;;;;5.72;3.83;;;;;;;10.76;100.00;100161.69;5094967;28;20152;-75
2023/11/01 02:10:29;;;;;;;11.18;4.28;;;;;;;10.74;100.00;100160.94;5092332;28;20031;-75
2023/11/01 02:12:55;;;;;;;10.32;4.40;;;;;;;10.72;100.00;100149.69;5097767;28;20046;-75
2023/11/01 02:15:20;;;;;;;8.75;3.90;;;;;;;10.73;100.00;100143.53;5093028;28;20103;-75
2023/11/01 02:17:46;;;;;;;4.63;3.60;;;;;;;10.73;100.00;100143.53;5093397;28;20339;-75
2023/11/01 02:20:12;;;;;;;6.15;3.50;;;;;;;10.72;100.00;100145.31;5083989;28;20055;-75
2023/11/01 02:22:38;;;;;;;5.93;3.10;;;;;;;10.73;100.00;100130.44;5079765;28;20035;-75
2023/11/01 02:25:04;;;;;;;6.70;2.92;;;;;;;10.71;100.00;100134.91;5086963;28;20044;-75
2023/11/01 02:27:29;;;;;;;5.28;2.72;;;;;;;10.72;100.00;100134.81;5085514;28;20396;-75
2023/11/01 02:29:55;;;;;;;4.28;2.60;;;;;;;10.73;100.00;100125.19;5096713;28;20043;-75
2023/11/01 02:32:24;;;;;;;4.20;2.47;;;;;;;10.74;100.00;100119.88;5087759;28;20381;-75
2023/11/01 02:34:50;;;;;;;2.30;2.10;;;;;;;10.74;100.00;100116.41;5077489;28;20024;-75
2023/11/01 02:37:15;;;;;;;5.00;2.72;;;;;;;10.73;100.00;100112.09;5093063;28;20071;-75
2023/11/01 02:39:40;;;;;;;4.78;2.50;;;;;;;10.72;100.00;100111.25;5092790;28;20051;-75
2023/11/01 02:42:06;;;;;;;6.00;2.58;;;;;;;10.71;100.00;100108.72;5073280;28;20051;-75
2023/11/01 02:44:31;;;;;;;3.72;2.67;;;;;;;10.71;100.00;100100.84;5086374;28;20028;-75
2023/11/01 02:46:57;;;;;;;5.78;3.67;;;;;;;10.71;100.00;100104.34;5088806;28;20400;-75
2023/11/01 02:49:22;;;;;;;9.20;5.30;;;;;;;10.71;100.00;100103.47;5097397;28;20024;-75
2023/11/01 02:51:48;;;;;;;10.52;5.30;;;;;;;10.71;100.00;100099.09;5068801;28;20055;-75
2023/11/01 02:54:13;;;;;;;7.70;5.47;;;;;;;10.70;100.00;100092.16;5086074;28;20031;-75
2023/11/01 02:56:38;;;;;;;8.50;6.55;;;;;;;10.69;100.00;100093.06;5086129;28;20028;-75
2023/11/01 02:59:04;;;;;;;10.32;6.90;;;;;;;10.70;100.00;100096.56;5089798;28;20051;-75
2023/11/01 03:01:30;;;;;;;8.75;5.88;;;;;;;10.69;100.00;100090.47;5078727;28;20103;-75
2023/11/01 03:03:55;;;;;;;8.60;7.10;;;;;;;10.69;100.00;100082.59;5097061;28;20027;-75
2023/11/01 03:06:21;;;;;;;11.55;6.80;;;;;;;10.70;100.00;100097.41;5090360;28;20032;-75
2023/11/01 03:08:46;;;;;;;10.45;7.80;;;;;;;10.70;100.00;100091.31;5076781;28;20028;-75
2023/11/01 03:11:12;;;;;;;13.30;7.85;;;;;;;10.71;100.00;100095.63;5093700;28;20066;-75
2023/11/01 03:13:38;;;;;;;14.23;8.63;;;;;;;10.71;100.00;100086.00;5091660;28;20130;-75
2023/11/01 03:16:03;;;;;;;18.40;10.43;;;;;;;10.71;100.00;100083.41;5080839;28;20038;-75
2023/11/01 03:18:29;;;;;;;12.60;9.00;;;;;;;10.73;100.00;100075.44;5096359;28;20036;-75
2023/11/01 03:20:54;;;;;;;13.60;8.02;;;;;;;10.75;100.00;100076.19;5093110;28;20094;-75
2023/11/01 03:23:19;;;;;;;8.73;7.95;;;;;;;10.76;100.00;100070.88;5095314;28;20106;-75
2023/11/01 03:25:45;;;;;;;12.10;9.32;;;;;;;10.73;100.00;100072.81;5095015;28;20031;-75
2023/11/01 03:28:10;;;;;;;9.20;8.23;;;;;;;10.75;100.00;100074.44;5064774;28;20044;-75
2023/11/01 03:30:35;;;;;;;14.05;8.60;;;;;;;10.75;100.00;100071.81;5083733;28;20047;-75
2023/11/01 03:33:01;;;;;;;10.57;8.50;;;;;;;10.75;100.00;100065.72;5088020;28;20062;-75
2023/11/01 03:35:26;;;;;;;8.63;7.93;;;;;;;10.75;100.00;100053.47;5080147;28;20044;-74
2023/11/01 03:37:52;;;;;;;9.20;8.23;;;;;;;10.75;100.00;100053.47;5083194;28;20028;-75
2023/11/01 03:40:17;;;;;;;7.70;7.00;;;;;;;10.78;100.00;100049.84;5076300;28;20040;-75
2023/11/01 03:42:42;;;;;;;17.70;8.23;;;;;;;10.76;100.00;100049.09;5082800;28;20056;-75
2023/11/01 03:45:08;;;;;;;7.97;7.15;;;;;;;10.78;100.00;100041.97;5082593;28;20040;-75
2023/11/01 03:47:33;;;;;;;7.47;6.90;;;;;;;10.79;100.00;100046.31;5092729;28;20040;-75
2023/11/01 03:50:03;;;;;;;7.43;6.70;;;;;;;10.79;100.00;100041.06;5096616;28;20027;-75
2023/11/01 03:52:28;;;;;;;7.20;6.50;;;;;;;10.78;100.00;100038.53;5080905;28;20044;-75
2023/11/01 03:54:54;;;;;;;7.43;6.75;;;;;;;10.77;100.00;100032.47;5078995;28;20113;-75
2023/11/01 03:57:19;;;;;;;6.38;5.88;;;;;;;10.78;100.00;100033.28;5091848;28;20046;-74
2023/11/01 03:59:45;;;;;;;8.63;5.90;;;;;;;10.77;100.00;100040.31;5078121;28;20067;-75
2023/11/01 04:02:10;;;;;;;6.13;5.63;;;;;;;10.76;100.00;100030.75;5079996;28;20371;-75
2023/11/01 04:04:35;;;;;;;5.80;5.20;;;;;;;10.77;100.00;100037.69;5092427;28;20038;-75
2023/11/01 04:07:01;;;;;;;6.32;5.00;;;;;;;10.78;100.00;100026.28;5093404;28;20028;-75
2023/11/01 04:09:26;;;;;;;7.95;5.43;;;;;;;10.78;100.00;100028.06;5081218;28;20032;-75
2023/11/01 04:11:52;;;;;;;4.95;4.55;;;;;;;10.78;100.00;100034.13;5093133;28;20103;-75
2023/11/01 04:14:17;;;;;;;4.75;4.32;;;;;;;10.79;100.00;100027.09;5094936;28;20312;-75
2023/11/01 04:16:43;;;;;;;4.78;4.43;;;;;;;10.80;100.00;100019.16;5077782;28;20042;-75
2023/11/01 04:19:08;;;;;;;8.30;5.78;;;;;;;10.80;100.00;100018.34;5078515;28;20044;-75
2023/11/01 04:21:33;;;;;;;7.80;5.85;;;;;;;10.82;100.00;100019.94;5084930;28;20036;-75
2023/11/01 04:23:59;;;;;;;9.00;6.40;;;;;;;10.80;100.00;100015.72;5093727;28;20040;-75
2023/11/01 04:26:24;;;;;;;7.60;6.13;;;;;;;10.83;100.00;100019.00;5067017;28;20201;-75
2023/11/01 04:28:49;;;;;;;6.53;5.93;;;;;;;10.85;100.00;100021.56;5070802;28;20040;-75
2023/11/01 04:31:17;;;;;;;10.55;7.63;;;;;;;10.83;100.00;100015.56;5091781;28;20065;-75
2023/11/01 04:33:43;;;;;;;8.15;7.40;;;;;;;10.85;100.00;100013.69;5093804;28;20043;-75
2023/11/01 04:36:08;;;;;;;8.02;7.22;;;;;;;10.86;100.00;100020.59;5090479;28;20130;-75
2023/11/01 04:38:37;;;;;;;8.80;7.97;;;;;;;10.87;100.00;100020.53;5089282;28;20146;-75
2023/11/01 04:41:08;;;;;;;9.13;8.27;;;;;;;10.88;100.00;100017.00;5070206;28;20086;-75
2023/11/01 04:43:35;;;;;;;8.95;7.05;;;;;;;10.91;100.00;100013.34;5095987;28;20035;-75
2023/11/01 04:46:00;;;;;;;11.68;8.65;;;;;;;10.92;100.00;100013.25;5099302;28;20032;-75
2023/11/01 04:48:26;;;;;;;9.88;8.32;;;;;;;10.92;100.00;100010.66;5080989;28;20369;-75
2023/11/01 04:50:51;;;;;;;9.73;8.70;;;;;;;10.93;100.00;100011.47;5084365;28;20059;-75
2023/11/01 04:53:17;;;;;;;13.77;9.05;;;;;;;10.95;100.00;100005.25;5088255;28;20039;-75
2023/11/01 04:55:42;;;;;;;9.48;8.20;;;;;;;10.97;100.00;100005.16;5079931;28;20059;-75
2023/11/01 04:58:08;;;;;;;7.68;6.90;;;;;;;10.99;100.00;99999.81;5081708;28;20039;-75
2023/11/01 05:00:33;;;;;;;7.78;7.07;;;;;;;11.00;100.00;99993.66;5097704;28;20277;-75
2023/11/01 05:02:58;;;;;;;7.03;6.38;;;;;;;11.01;100.00;99996.19;5097496;28;20040;-75
2023/11/01 05:05:24;;;;;;;6.75;5.80;;;;;;;11.01;100.00;99996.19;5079504;28;20042;-75
2023/11/01 05:07:51;;;;;;;10.43;5.57;;;;;;;11.03;100.00;99994.34;5098402;28;20042;-75
2023/11/01 05:10:17;;;;;;;5.75;4.90;;;;;;;11.05;100.00;99989.84;5094407;28;20028;-75
2023/11/01 05:12:42;;;;;;;6.20;4.72;;;;;;;11.06;100.00;99988.06;5083086;28;20059;-75
2023/11/01 05:15:08;;;;;;;11.18;5.10;;;;;;;11.08;100.00;99981.00;5092884;28;20239;-75
2023/11/01 05:17:34;;;;;;;7.32;5.20;;;;;;;11.09;100.00;99978.25;5080436;28;20036;-75
2023/11/01 05:19:59;;;;;;;15.18;6.47;;;;;;;11.11;100.00;99981.66;5062830;28;20039;-75
2023/11/01 05:22:25;;;;;;;5.65;4.30;;;;;;;11.14;100.00;99978.00;5098865;28;20040;-75
2023/11/01 05:24:50;;;;;;;11.65;4.43;;;;;;;11.15;100.00;99974.44;5094749;28;20024;-75
2023/11/01 05:27:17;;;;;;;8.93;5.05;;;;;;;11.15;100.00;99974.44;5082672;28;20224;-75
2023/11/01 05:29:42;;;;;;;11.25;5.47;;;;;;;11.19;100.00;99970.72;5095385;28;20074;-75
2023/11/01 05:32:08;;;;;;;16.70;5.85;;;;;;;11.20;100.00;99975.03;5077095;28;20085;-75
2023/11/01 05:34:34;;;;;;;21.00;5.38;;;;;;;11.21;100.00;99973.28;5084611;28;20067;-75
2023/11/01 05:37:03;;;;;;;10.50;5.00;;;;;;;11.22;100.00;99977.56;5093710;28;20044;-75
2023/11/01 05:39:28;;;;;;;13.68;5.28;;;;;;;11.23;100.00;99966.16;5093232;28;20073;-75
2023/11/01 05:41:54;;;;;;;9.75;5.00;;;;;;;11.23;100.00;99971.41;5087301;28;20063;-75
2023/11/01 05:44:19;;;;;;;10.10;4.57;;;;;;;11.25;100.00;99964.28;5065807;28;20024;-75
2023/11/01 05:46:51;;;;;;;16.27;4.65;;;;;;;11.26;100.00;99965.97;5086175;28;20234;-75
2023/11/01 05:49:16;;;;;;;10.88;4.40;;;;;;;11.26;100.00;99965.97;5085952;28;20032;-75
2023/11/01 05:51:42;;;;;;;9.68;4.32;;;;;;;11.26;100.00;99960.72;5084735;28;20035;-75
2023/11/01 05:54:07;;;;;;;10.60;3.80;;;;;;;11.28;100.00;99962.34;5086391;28;20048;-75
2023/11/01 05:56:33;;;;;;;14.00;4.00;;;;;;;11.29;100.00;99957.94;5082859;28;20077;-75
2023/11/01 05:58:58;;;;;;;8.50;3.60;;;;;;;11.28;100.00;99957.09;5089195;28;20090;-75
2023/11/01 06:01:24;;;;;;;18.42;3.83;;;;;;;11.27;100.00;99959.81;5083645;28;20083;-75
2023/11/01 06:03:50;;;;;;;11.82;4.07;;;;;;;11.26;100.00;99947.63;5095682;28;20111;-75
2023/11/01 06:06:18;;;;;;;12.18;3.72;;;;;;;11.31;100.00;99956.06;5071785;28;20040;-75
2023/11/01 06:08:44;;;;;;;13.45;4.10;;;;;;;11.30;100.00;99963.09;5098366;28;20369;-75
2023/11/01 06:11:09;;;;;;;11.77;3.30;;;;;;;11.31;100.00;99954.31;5094474;28;20032;-75
2023/11/01 06:13:34;;;;;;;15.48;3.83;;;;;;;11.31;100.00;99959.56;5081118;28;20039;-75
2023/11/01 06:16:04;;;;;;;13.40;3.42;;;;;;;11.30;100.00;99959.63;5088895;28;20028;-75
2023/11/01 06:18:33;;;;;;;16.50;3.83;;;;;;;11.31;100.00;99961.31;5066652;28;20040;-75
2023/11/01 06:20:58;;;;;;;14.32;3.60;;;;;;;11.30;100.00;99950.00;5116355;28;20054;-75
2023/11/01 06:23:23;;;;;;;12.13;3.25;;;;;;;11.32;100.00;99963.84;5114883;28;20331;-75
2023/11/01 06:25:49;;;;;;;20.33;3.90;;;;;;;11.34;100.00;99950.66;5114720;28;20035;-75
2023/11/01 06:28:14;;;;;;;10.05;3.25;;;;;;;11.35;100.00;99947.13;5114519;28;20257;-75
2023/11/01 06:30:40;;;;;;;15.55;3.10;;;;;;;11.32;100.00;99955.97;5114832;28;20031;-75
2023/11/01 06:33:06;;;;;;;19.73;3.33;;;;;;;11.31;100.00;99943.81;5115354;28;20040;-75
2023/11/01 06:35:31;;;;;;;14.30;3.50;;;;;;;11.33;100.00;99946.34;5115180;28;20037;-75
2023/11/01 06:37:57;;;;;;;19.58;3.47;;;;;;;11.32;100.00;99940.25;5096761;28;20129;-75
2023/11/01 06:40:22;;;;;;;7.60;3.35;;;;;;;11.31;100.00;99940.34;5114513;28;20035;-75
2023/11/01 06:42:48;;;;;;;16.42;4.00;;;;;;;11.33;100.00;99947.19;5113903;28;20031;-75
2023/11/01 06:45:13;;;;;;;9.80;3.25;;;;;;;11.34;100.00;99948.88;5113752;28;20082;-75
2023/11/01 06:47:39;;;;;;;14.98;3.83;;;;;;;11.32;100.00;99944.66;5101385;28;20031;-75
2023/11/01 06:50:05;;;;;;;13.25;3.65;;;;;;;11.32;100.00;99950.75;5093654;28;20335;-75
2023/11/01 06:52:31;;;;;;;16.67;3.47;;;;;;;11.32;100.00;99948.13;5093413;28;20056;-74
2023/11/01 06:54:57;;;;;;;15.73;3.78;;;;;;;11.36;100.00;99940.91;5094411;28;20032;-75
2023/11/01 06:57:22;;;;;;;13.02;3.47;;;;;;;11.36;100.00;99940.91;5076666;28;20027;-75
2023/11/01 06:59:48;;;;;;;11.88;3.53;;;;;;;11.33;100.00;99934.09;5094158;28;20060;-75
2023/11/01 07:02:13;;;;;;;7.90;3.35;;;;;;;11.34;100.00;99938.38;5094453;28;20100;-75
2023/11/01 07:04:38;;;;;;;18.27;3.60;;;;;;;11.32;100.00;99937.63;5094220;28;20259;-75
2023/11/01 07:07:04;;;;;;;19.25;3.60;;;;;;;11.34;100.00;99937.56;5093307;28;20058;-75
2023/11/01 07:09:29;;;;;;;6.20;3.10;;;;;;;11.36;100.00;99946.16;5074505;28;20020;-75
2023/11/01 07:11:55;;;;;;;12.10;2.85;;;;;;;11.37;100.00;99949.63;5093601;28;20039;-75
2023/11/01 07:14:20;;;;;;;15.43;3.97;;;;;;;11.36;100.00;99943.53;5075531;28;20035;-75
2023/11/01 07:16:46;;;;;;;18.65;3.72;;;;;;;11.33;100.00;99947.19;5075294;28;20228;-75
2023/11/01 07:19:14;;;;;;;13.30;3.45;;;;;;;11.34;100.00;99945.41;5094300;28;20077;-75
2023/11/01 07:21:40;;;;;;;;;;;;;;;11.32;100.00;99950.75;5094599;28;20034;-75
2023/11/01 07:24:07;;;;;;;17.77;3.40;;;;;;;11.33;100.00;99936.72;5094325;28;19943;-75
2023/11/01 07:26:33;;;;;;;11.10;3.05;;;;;;;11.34;100.00;99946.25;5094345;28;20039;-75
2023/11/01 07:29:01;;;;;;;13.98;3.33;;;;;;;11.36;100.00;99947.94;5075395;28;20291;-75
2023/11/01 07:31:26;;;;;;;14.60;3.17;;;;;;;11.37;100.00;99934.75;5092753;28;20040;-75
2023/11/01 07:33:53;;;;;;;14.93;3.72;;;;;;;11.37;100.00;99936.50;5092940;28;20023;-75
2023/11/01 07:36:19;;;;;;;10.23;3.10;;;;;;;11.37;100.00;99940.00;5093074;28;20044;-75
2023/11/01 07:38:45;;;;;;;18.23;3.25;;;;;;;11.38;100.00;99940.84;5092280;28;20038;-75
2023/11/01 07:41:10;;;;;;;10.93;3.85;;;;;;;11.34;100.00;99935.75;5093490;28;20020;-75
2023/11/01 07:43:36;;;;;;;11.30;3.22;;;;;;;11.36;100.00;99933.06;5093543;28;20043;-75
2023/11/01 07:46:01;;;;;;;14.75;3.78;;;;;;;11.41;100.00;99928.41;5093986;28;20249;-75
2023/11/01 07:48:26;;;;;;;14.77;3.22;;;;;;;11.40;100.00;99934.56;5094179;28;20036;-75
2023/11/01 07:50:52;;;;;;;21.75;3.53;;;;;;;11.43;100.00;99923.06;5094278;28;20335;-75
2023/11/01 07:53:17;;;;;;;13.60;3.10;;;;;;;11.43;100.00;99923.06;5093972;28;20036;-75
2023/11/01 07:55:42;;;;;;;10.40;2.65;;;;;;;11.45;100.00;99919.41;5093906;28;20350;-75
2023/11/01 07:58:08;;;;;;;18.48;3.10;;;;;;;11.43;100.00;99913.41;5093907;28;20032;-75
2023/11/01 08:00:33;;;;;;;6.55;2.47;;;;;;;11.44;100.00;99912.50;5094025;28;20036;-75
2023/11/01 08:02:59;;;;;;;9.60;2.88;;;;;;;11.46;100.00;99915.00;5094065;28;20331;-75
2023/11/01 08:05:24;;;;;;;10.20;2.70;;;;;;;11.47;100.00;99904.44;5076196;28;20199;-75
2023/11/01 08:07:50;;;;;;;11.52;2.50;;;;;;;11.49;100.00;99912.19;5095775;28;20054;-75
2023/11/01 08:10:15;;;;;;;8.23;2.45;;;;;;;11.50;100.00;99916.53;5097916;28;20099;-75
2023/11/01 08:12:41;;;;;;;12.80;2.75;;;;;;;11.51;100.00;99920.81;5097830;28;20036;-75
2023/11/01 08:15:07;;;;;;;8.88;3.10;;;;;;;11.51;100.00;99905.09;5097918;28;20356;-75
2023/11/01 08:17:32;;;;;;;12.52;2.55;;;;;;;11.53;100.00;99901.47;5097538;28;20141;-74
2023/11/01 08:19:58;;;;;;;18.48;3.33;;;;;;;11.52;100.00;99901.53;5097775;28;20095;-75
2023/11/01 08:22:24;;;;;;;11.82;2.90;;;;;;;11.51;100.00;99894.59;5079599;28;20365;-75
2023/11/01 08:24:50;;;;;;;11.65;2.92;;;;;;;11.53;100.00;99897.97;5097398;28;20035;-75
2023/11/01 08:27:16;;;;;;;11.88;2.78;;;;;;;11.53;100.00;99893.59;5097622;28;20331;-75
2023/11/01 08:29:42;;;;;;;12.50;3.10;;;;;;;11.55;100.00;99887.41;5097586;28;20247;-75
2023/11/01 08:32:11;;;;;;;10.48;3.10;;;;;;;11.55;100.00;99884.78;5097701;28;20035;-75
2023/11/01 08:34:37;;;;;;;13.43;2.53;;;;;;;11.57;100.00;99889.00;5097470;28;20035;-75
2023/11/01 08:37:03;;;;;;;18.23;3.08;;;;;;;11.57;100.00;99883.75;5097743;28;20038;-75
2023/11/01 08:39:28;;;;;;;11.93;2.28;;;;;;;11.58;100.00;99874.09;5097112;28;20093;-75
2023/11/01 08:41:54;;;;;;;8.68;2.58;;;;;;;11.60;100.00;99878.31;5097373;28;20035;-75
2023/11/01 08:44:19;;;;;;;11.65;3.00;;;;;;;11.59;100.00;99879.25;5097404;28;20106;-75
2023/11/01 08:46:45;;;;;;;7.97;2.50;;;;;;;11.58;100.00;99874.94;5092581;28;20044;-75
2023/11/01 08:49:11;;;;;;;11.38;2.28;;;;;;;11.60;100.00;99877.47;5077107;28;20090;-75
2023/11/01 08:51:38;;;;;;;10.55;3.03;;;;;;;11.60;100.00;99878.31;5077132;28;20096;-75
2023/11/01 08:54:04;;;;;;;14.88;2.30;;;;;;;11.62;100.00;99873.81;5076851;28;20040;-75
2023/11/01 08:56:30;;;;;;;7.25;2.20;;;;;;;11.65;100.00;99868.41;5075505;28;20242;-75
2023/11/01 08:58:55;;;;;;;9.07;2.63;;;;;;;11.68;100.00;99872.63;5076911;28;20059;-75
2023/11/01 09:01:20;;;;;;;8.23;2.42;;;;;;;11.70;100.00;99870.75;5076802;28;20033;-75
2023/11/01 09:03:47;;;;;;;10.25;3.47;;;;;;;11.71;100.00;99867.19;5076791;28;20029;-75
2023/11/01 09:06:12;;;;;;;12.55;3.03;;;;;;;11.75;100.00;99866.06;5076708;28;20063;-75
2023/11/01 09:08:37;;;;;;;16.73;3.45;;;;;;;11.77;100.00;99868.56;5076059;28;20359;-75
2023/11/01 09:11:03;;;;;;;13.68;3.40;;;;;;;11.78;100.00;99865.03;5076410;28;20043;-75
2023/11/01 09:13:28;;;;;;;10.32;3.47;;;;;;;11.79;100.00;99864.06;5076318;28;20039;-76
2023/11/01 09:15:54;;;;;;;9.75;3.10;;;;;;;11.79;100.00;99857.06;5076775;28;20145;-75
2023/11/01 09:18:20;;;;;;;15.23;3.13;;;;;;;11.82;100.00;99861.28;5076990;28;20024;-75
2023/11/01 09:20:46;;;;;;;7.10;2.83;;;;;;;11.84;100.00;99851.53;5083827;28;20048;-75
2023/11/01 09:23:11;;;;;;;15.98;2.97;;;;;;;11.87;100.00;99853.97;5084046;28;20036;-75
2023/11/01 09:25:38;;;;;;;10.93;2.38;;;;;;;11.83;100.00;99855.94;5085476;28;20078;-75
2023/11/01 09:28:03;;;;;;;12.48;2.78;;;;;;;11.85;100.00;99855.84;5085817;28;20330;-75
2023/11/01 09:30:29;;;;;;;10.25;2.38;;;;;;;11.86;100.00;99852.28;5083398;28;20328;-75
2023/11/01 09:32:54;;;;;;;8.02;2.40;;;;;;;11.87;100.00;99848.72;5084673;28;20332;-75
2023/11/01 09:35:20;;;;;;;10.50;2.72;;;;;;;11.89;100.00;99842.44;5084196;28;20028;-75
2023/11/01 09:37:45;;;;;;;12.95;2.55;;;;;;;11.90;100.00;99838.91;5085718;28;20145;-75
2023/11/01 09:40:12;;;;;;;6.63;2.63;;;;;;;11.92;100.00;99836.19;5067171;28;20103;-75
2023/11/01 09:42:40;;;;;;;6.72;2.28;;;;;;;11.95;100.00;99843.91;5073434;28;20028;-75
2023/11/01 09:45:10;;;;;;;7.70;3.15;;;;;;;11.96;100.00;99831.59;5084683;28;20044;-75
2023/11/01 09:47:39;;;;;;;8.52;2.13;;;;;;;11.97;100.00;99844.63;5102225;28;20315;-75
2023/11/01 09:50:08;;;;;;;;;;;;;;;11.94;100.00;99831.69;5093577;28;20039;-75
2023/11/01 09:52:35;;;;;;;5.60;2.00;;;;;;;11.93;100.00;99829.16;5095215;28;19933;-75
2023/11/01 09:55:00;;;;;;;6.70;2.22;;;;;;;11.92;100.00;99833.56;5084926;28;20035;-75
2023/11/01 09:57:29;;;;;;;5.47;2.25;;;;;;;11.94;100.00;99830.88;5094550;28;20062;-75
2023/11/01 09:59:55;;;;;;;5.38;2.17;;;;;;;11.93;100.00;99837.88;5092441;28;20063;-75
2023/11/01 10:02:22;;;;;;;10.85;2.17;;;;;;;11.91;100.00;99831.88;5093430;28;20362;-75
2023/11/01 10:04:48;;;;;;;11.60;2.70;;;;;;;11.91;100.00;99831.88;5085237;28;20365;-75
2023/11/01 10:07:13;;;;;;;5.32;1.85;;;;;;;11.95;100.00;99835.16;5077046;28;20043;-75
2023/11/01 10:09:39;;;;;;;5.13;1.92;;;;;;;11.94;100.00;99831.69;5074679;28;20039;-75
2023/11/01 10:12:08;;;;;;;10.23;2.85;;;;;;;11.93;100.00;99829.16;5094974;28;20059;-75
2023/11/01 10:14:34;;;;;;;9.02;2.05;;;;;;;11.95;100.00;99829.91;5085381;28;20023;-75
2023/11/01 10:17:00;;;;;;;7.10;2.10;;;;;;;11.94;100.00;99821.19;5095092;28;20284;-75
2023/11/01 10:19:26;;;;;;;5.85;2.00;;;;;;;11.95;100.00;99822.03;5093166;28;20099;-75
2023/11/01 10:21:52;;;;;;;7.72;2.10;;;;;;;11.98;100.00;99833.19;5086134;28;20228;-75
2023/11/01 10:24:18;;;;;;;7.53;2.05;;;;;;;12.00;100.00;99819.97;5082635;28;20087;-75
2023/11/01 10:26:43;;;;;;;8.48;1.90;;;;;;;12.02;100.00;99818.91;5093999;28;20032;-75
2023/11/01 10:29:08;;;;;;;7.78;1.95;;;;;;;12.03;100.00;99810.13;5075876;28;20277;-75
2023/11/01 10:31:34;;;;;;;8.00;2.15;;;;;;;12.07;100.00;99808.97;5093418;28;20028;-75
2023/11/01 10:34:09;;;;;;;4.43;1.60;;;;;;;12.11;100.00;99814.88;5088328;28;20067;-75
2023/11/01 10:36:48;;;;;;;5.70;2.00;;;;;;;12.14;100.00;99806.81;5094101;28;20043;-75
2023/11/01 10:39:15;;;;;;;7.43;2.22;;;;;;;12.14;100.00;99800.75;5085982;28;20028;-75
2023/11/01 10:41:41;;;;;;;9.40;2.10;;;;;;;12.14;100.00;99788.44;5086811;28;20040;-75
2023/11/01 10:44:07;;;;;;;10.32;2.35;;;;;;;12.14;100.00;99795.50;5088005;28;20036;-75
2023/11/01 10:46:33;;;;;;;8.20;2.20;;;;;;;12.14;100.00;99790.25;5093664;28;20062;-76
2023/11/01 10:48:59;;;;;;;9.88;1.95;;;;;;;12.09;100.00;99786.09;5088400;28;20367;-75
2023/11/01 10:51:24;;;;;;;7.20;2.25;;;;;;;12.08;100.00;99781.81;5065972;28;20220;-75
2023/11/01 10:53:51;;;;;;;6.30;1.77;;;;;;;12.08;100.00;99781.81;5089854;28;20273;-75
2023/11/01 10:56:16;;;;;;;8.90;2.00;;;;;;;12.12;100.00;99773.75;5091737;28;20278;-75
2023/11/01 10:58:44;;;;;;;6.55;2.00;;;;;;;12.14;100.00;99775.31;5091723;28;20060;-75
2023/11/01 11:01:34;;;;;;;8.93;2.47;;;;;;;12.13;100.00;99767.53;5081965;28;20223;-75
2023/11/01 11:04:12;;;;;;;7.78;1.95;;;;;;;12.16;100.00;99768.19;5089796;28;20059;-75
2023/11/01 11:07:02;;;;;;;7.25;2.22;;;;;;;12.19;100.00;99761.94;5077061;28;20066;-75
2023/11/01 11:09:27;;;;;;;5.88;1.80;;;;;;;12.18;100.00;99752.34;5085351;28;20353;-75
2023/11/01 11:12:21;;;;;;;10.40;2.55;;;;;;;12.21;100.00;99746.91;5070148;28;20035;-75
2023/11/01 11:14:50;;;;;;;7.28;2.10;;;;;;;12.22;100.00;99736.28;5083084;28;20367;-75